createdAt,value
2022-08-28T00:03:32.316Z,100.00
2022-08-28T00:08:30.402Z,100.00
2022-08-28T00:13:26.998Z,100.00
2022-08-28T00:18:23.423Z,100.00
2022-08-28T00:23:20.097Z,100.00
2022-08-28T00:28:23.953Z,100.00
2022-08-28T00:33:23.870Z,100.00
2022-08-28T00:38:21.201Z,100.00
2022-08-28T00:43:37.612Z,100.00
2022-08-28T00:48:33.928Z,100.00
2022-08-28T00:53:33.030Z,100.00
2022-08-28T00:58:29.580Z,100.00
2022-08-28T01:03:26.427Z,100.00
2022-08-28T01:08:23.121Z,100.00
2022-08-28T01:13:20.937Z,100.00
2022-08-28T01:18:18.215Z,100.00
2022-08-28T01:23:43.773Z,100.00
2022-08-28T01:28:40.132Z,100.00
2022-08-28T01:33:36.730Z,100.00
2022-08-28T01:38:38.235Z,100.00
2022-08-28T01:43:34.831Z,100.00
2022-08-28T01:48:32.343Z,100.00
2022-08-28T01:53:33.113Z,100.00
2022-08-28T01:58:31.085Z,100.00
2022-08-28T02:03:29.482Z,100.00
2022-08-28T02:08:25.761Z,100.00
2022-08-28T02:13:22.308Z,100.00
2022-08-28T02:18:22.349Z,100.00
2022-08-28T02:23:19.512Z,100.00
2022-08-28T02:28:15.830Z,100.00
2022-08-28T02:33:12.314Z,100.00
2022-08-28T02:38:09.327Z,100.00
2022-08-28T02:43:06.222Z,100.00
2022-08-28T02:48:02.879Z,100.00
2022-08-28T02:52:59.449Z,100.00
2022-08-28T02:57:55.770Z,100.00
2022-08-28T03:02:52.881Z,100.00
2022-08-28T03:07:50.195Z,100.00
2022-08-28T03:12:46.591Z,100.00
2022-08-28T03:17:42.961Z,100.00
2022-08-28T03:22:58.463Z,100.00
2022-08-28T03:27:54.862Z,100.00
2022-08-28T03:32:51.249Z,100.00
2022-08-28T03:37:47.707Z,100.00
2022-08-28T03:42:44.011Z,100.00
2022-08-28T03:47:49.711Z,100.00
2022-08-28T03:52:47.538Z,100.00
2022-08-28T03:57:43.843Z,100.00
2022-08-28T04:02:41.169Z,100.00
2022-08-28T04:07:37.850Z,100.00
2022-08-28T04:12:34.505Z,100.00
2022-08-28T04:17:31.781Z,100.00
2022-08-28T04:22:29.842Z,100.00
2022-08-28T04:27:26.445Z,100.00
2022-08-28T04:32:23.266Z,100.00
2022-08-28T04:37:19.717Z,100.00
2022-08-28T04:42:16.070Z,100.00
2022-08-28T04:47:12.362Z,100.00
2022-08-28T04:52:08.697Z,100.00
2022-08-28T04:57:06.433Z,100.00
2022-08-28T05:02:03.279Z,100.00
2022-08-28T05:06:59.927Z,100.00
2022-08-28T05:11:56.433Z,100.00
2022-08-28T05:16:53.007Z,100.00
2022-08-28T05:21:49.577Z,100.00
2022-08-28T05:26:47.978Z,100.00
2022-08-28T05:31:44.906Z,100.00
2022-08-28T05:36:42.982Z,100.00
2022-08-28T05:41:40.265Z,100.00
2022-08-28T05:46:37.718Z,100.00
2022-08-28T05:51:35.248Z,100.00
2022-08-28T05:56:34.761Z,100.00
2022-08-28T06:01:32.579Z,100.00
2022-08-28T06:06:30.271Z,100.00
2022-08-28T06:11:30.835Z,100.00
2022-08-28T06:16:27.578Z,100.00
2022-08-28T06:21:24.687Z,100.00
2022-08-28T06:26:20.994Z,100.00
2022-08-28T06:31:25.078Z,100.00
2022-08-28T06:36:23.545Z,100.00
2022-08-28T06:41:19.883Z,100.00
2022-08-28T06:46:16.992Z,100.00
2022-08-28T06:51:13.515Z,100.00
2022-08-28T06:56:25.656Z,100.00
2022-08-28T07:01:29.107Z,100.00
2022-08-28T07:06:25.800Z,100.00
2022-08-28T07:11:27.506Z,100.00
2022-08-28T07:16:29.603Z,100.00
2022-08-28T07:21:26.323Z,100.00
2022-08-28T07:26:24.271Z,100.00
2022-08-28T07:31:22.746Z,100.00
2022-08-28T07:36:29.189Z,100.00
2022-08-28T07:41:27.995Z,100.00
2022-08-28T07:46:24.388Z,100.00
2022-08-28T07:51:20.823Z,100.00
2022-08-28T07:56:17.119Z,100.00
2022-08-28T08:01:13.505Z,100.00
2022-08-28T08:06:10.360Z,100.00
2022-08-28T08:11:11.221Z,100.00
2022-08-28T08:16:11.870Z,100.00
2022-08-28T08:21:09.898Z,100.00
2022-08-28T08:26:07.907Z,100.00
2022-08-28T08:31:11.945Z,100.00
2022-08-28T08:36:09.091Z,100.00
2022-08-28T08:41:07.324Z,100.00
2022-08-28T08:46:03.671Z,100.00
2022-08-28T08:51:04.628Z,100.00
2022-08-28T08:56:03.060Z,100.00
2022-08-28T09:01:14.754Z,100.00
2022-08-28T09:06:18.437Z,100.00
2022-08-28T09:11:27.314Z,100.00
2022-08-28T09:16:29.658Z,100.00
2022-08-28T09:21:29.402Z,100.00
2022-08-28T09:26:26.122Z,100.00
2022-08-28T09:31:36.988Z,100.00
2022-08-28T09:36:34.755Z,100.00
2022-08-28T09:41:50.087Z,100.00
2022-08-28T09:46:51.062Z,100.00
2022-08-28T09:51:47.408Z,100.00
2022-08-28T09:56:44.912Z,100.00
2022-08-28T10:01:41.261Z,100.00
2022-08-28T10:06:43.499Z,100.00
2022-08-28T10:12:06.547Z,100.00
2022-08-28T10:17:26.101Z,100.00
2022-08-28T10:22:40.664Z,100.00
2022-08-28T10:27:53.588Z,100.00
2022-08-28T10:32:52.671Z,100.00
2022-08-28T10:38:01.025Z,100.00
2022-08-28T10:43:06.007Z,97.78
2022-08-28T10:48:15.429Z,92.00
2022-08-28T10:53:15.667Z,98.39
2022-08-28T10:58:21.621Z,98.62
2022-08-28T11:03:34.556Z,98.55
2022-08-28T11:08:33.534Z,95.61
2022-08-28T11:13:45.876Z,91.66
2022-08-28T11:18:51.345Z,81.18
2022-08-28T11:23:59.494Z,78.57
2022-08-28T11:28:55.959Z,81.52
2022-08-28T11:33:52.923Z,76.89
2022-08-28T11:38:52.074Z,77.22
2022-08-28T11:43:49.842Z,73.54
2022-08-28T11:48:48.659Z,73.22
2022-08-28T11:53:48.022Z,78.15
2022-08-28T11:58:54.459Z,72.23
2022-08-28T12:04:08.021Z,69.77
2022-08-28T12:09:05.222Z,65.13
2022-08-28T12:14:01.559Z,64.73
2022-08-28T12:18:59.395Z,67.50
2022-08-28T12:23:59.222Z,65.69
2022-08-28T12:29:01.162Z,72.39
2022-08-28T12:34:00.842Z,70.88
2022-08-28T12:39:00.379Z,66.61
2022-08-28T12:43:58.334Z,62.44
2022-08-28T12:48:56.598Z,63.02
2022-08-28T12:54:00.607Z,62.89
2022-08-28T12:59:16.987Z,58.79
2022-08-28T13:04:39.758Z,56.45
2022-08-28T13:09:36.675Z,57.68
2022-08-28T13:14:43.364Z,56.49
2022-08-28T13:19:40.368Z,57.18
2022-08-28T13:24:44.493Z,57.79
2022-08-28T13:29:55.680Z,57.09
2022-08-28T13:35:12.858Z,58.08
2022-08-28T13:40:24.445Z,57.24
2022-08-28T13:45:25.958Z,55.38
2022-08-28T13:50:23.779Z,55.10
2022-08-28T13:55:20.157Z,56.16
2022-08-28T14:00:19.043Z,54.50
2022-08-28T14:05:15.463Z,53.81
2022-08-28T14:10:11.766Z,54.58
2022-08-28T14:15:08.202Z,53.90
2022-08-28T14:20:04.848Z,51.55
2022-08-28T14:25:01.498Z,49.65
2022-08-28T14:29:57.795Z,50.76
2022-08-28T14:34:54.085Z,50.82
2022-08-28T14:39:51.043Z,52.78
2022-08-28T14:44:47.397Z,54.04
2022-08-28T14:49:43.945Z,54.74
2022-08-28T14:54:40.518Z,53.18
2022-08-28T14:59:36.815Z,52.57
2022-08-28T15:04:35.316Z,52.73
2022-08-28T15:09:33.971Z,52.93
2022-08-28T15:14:30.592Z,51.02
2022-08-28T15:19:27.163Z,54.32
2022-08-28T15:24:25.588Z,54.42
2022-08-28T15:29:21.906Z,55.40
2022-08-28T15:34:20.170Z,54.52
2022-08-28T15:39:35.599Z,53.22
2022-08-28T15:44:32.642Z,53.79
2022-08-28T15:49:30.870Z,56.82
2022-08-28T15:54:28.783Z,58.56
2022-08-28T15:59:25.079Z,58.01
2022-08-28T16:04:40.447Z,55.35
2022-08-28T16:09:36.777Z,54.48
2022-08-28T16:14:33.634Z,55.69
2022-08-28T16:19:30.043Z,55.84
2022-08-28T16:24:26.321Z,57.15
2022-08-28T16:29:22.817Z,55.34
2022-08-28T16:34:19.461Z,52.69
2022-08-28T16:39:16.549Z,52.95
2022-08-28T16:44:12.907Z,51.26
2022-08-28T16:49:09.301Z,50.18
2022-08-28T16:54:05.715Z,48.96
2022-08-28T16:59:02.026Z,46.98
2022-08-28T17:03:59.287Z,44.63
2022-08-28T17:08:57.261Z,38.57
2022-08-28T17:13:53.933Z,38.85
2022-08-28T17:18:52.077Z,39.79
2022-08-28T17:23:49.736Z,41.46
2022-08-28T17:28:46.477Z,43.72
2022-08-28T17:33:43.398Z,42.10
2022-08-28T17:38:40.793Z,43.78
2022-08-28T17:43:37.440Z,48.10
2022-08-28T17:48:35.468Z,55.34
2022-08-28T17:53:31.823Z,61.18
2022-08-28T17:58:28.116Z,64.47
2022-08-28T18:03:24.418Z,68.68
2022-08-28T18:08:20.735Z,72.13
2022-08-28T18:13:17.476Z,71.88
2022-08-28T18:18:14.121Z,73.32
2022-08-28T18:23:11.123Z,76.20
2022-08-28T18:28:08.213Z,77.57
2022-08-28T18:33:04.518Z,81.13
2022-08-28T18:38:01.603Z,85.46
2022-08-28T18:42:58.329Z,88.71
2022-08-28T18:47:54.870Z,92.93
2022-08-28T18:52:52.335Z,98.60
2022-08-28T18:57:48.639Z,100.00
2022-08-28T19:02:47.939Z,100.00
2022-08-28T19:07:44.450Z,100.00
2022-08-28T19:12:41.690Z,100.00
2022-08-28T19:17:39.052Z,100.00
2022-08-28T19:22:35.494Z,100.00
2022-08-28T19:27:31.853Z,100.00
2022-08-28T19:32:28.254Z,100.00
2022-08-28T19:37:25.210Z,100.00
2022-08-28T19:42:22.663Z,100.00
2022-08-28T19:47:19.238Z,100.00
2022-08-28T19:52:15.752Z,100.00
2022-08-28T19:57:12.291Z,100.00
2022-08-28T20:02:09.116Z,100.00
2022-08-28T20:07:05.554Z,100.00
2022-08-28T20:12:03.626Z,100.00
2022-08-28T20:17:00.548Z,100.00
2022-08-28T20:21:56.918Z,100.00
2022-08-28T20:26:53.627Z,100.00
2022-08-28T20:31:50.297Z,100.00
2022-08-28T20:36:47.293Z,100.00
2022-08-28T20:41:44.504Z,100.00
2022-08-28T20:46:42.232Z,100.00
2022-08-28T20:51:58.885Z,100.00
2022-08-28T20:56:57.231Z,100.00
2022-08-28T21:01:54.982Z,100.00
2022-08-28T21:06:51.414Z,100.00
2022-08-28T21:11:48.135Z,100.00
2022-08-28T21:16:45.440Z,100.00
2022-08-28T21:21:41.872Z,100.00
2022-08-28T21:26:40.357Z,100.00
2022-08-28T21:31:40.836Z,100.00
2022-08-28T21:36:38.493Z,100.00
2022-08-28T21:41:34.842Z,100.00
2022-08-28T21:46:31.239Z,100.00
2022-08-28T21:51:27.725Z,100.00
2022-08-28T21:56:26.282Z,100.00
2022-08-28T22:01:24.607Z,100.00
2022-08-28T22:06:22.013Z,100.00
2022-08-28T22:11:24.745Z,100.00
2022-08-28T22:16:22.065Z,100.00
2022-08-28T22:21:39.232Z,100.00
2022-08-28T22:26:36.027Z,100.00
2022-08-28T22:31:32.401Z,100.00
2022-08-28T22:36:29.293Z,100.00
2022-08-28T22:41:26.270Z,100.00
2022-08-28T22:46:23.139Z,100.00
2022-08-28T22:51:19.589Z,100.00
2022-08-28T22:56:16.489Z,100.00
2022-08-28T23:01:18.382Z,100.00
2022-08-28T23:06:15.290Z,100.00
2022-08-28T23:11:11.691Z,100.00
2022-08-28T23:16:08.176Z,100.00
2022-08-28T23:21:08.322Z,100.00
2022-08-28T23:26:04.757Z,100.00
2022-08-28T23:31:01.092Z,100.00
2022-08-28T23:35:57.805Z,100.00
2022-08-28T23:40:55.853Z,100.00
2022-08-28T23:45:53.251Z,100.00
2022-08-28T23:50:50.706Z,100.00
2022-08-28T23:55:48.671Z,100.00
